createdAt,value
2019-02-28T00:00:41.417Z,21.60
2019-02-28T00:03:13.865Z,25.20
2019-02-28T00:05:44.846Z,22.90
2019-02-28T00:08:15.709Z,21.73
2019-02-28T00:10:46.609Z,24.40
2019-02-28T00:13:21.472Z,25.53
2019-02-28T00:15:49.984Z,21.93
2019-02-28T00:18:20.919Z,28.87
2019-02-28T00:20:51.805Z,20.23
2019-02-28T00:23:22.937Z,22.10
2019-02-28T00:25:53.833Z,22.93
2019-02-28T00:28:25.759Z,23.13
2019-02-28T00:30:57.177Z,21.33
2019-02-28T00:33:30.871Z,21.67
2019-02-28T00:36:00.599Z,21.07
2019-02-28T00:38:31.417Z,25.17
2019-02-28T00:41:02.341Z,24.27
2019-02-28T00:43:33.224Z,26.20
2019-02-28T00:46:04.153Z,30.17
2019-02-28T00:48:34.977Z,27.83
2019-02-28T00:51:05.881Z,34.57
2019-02-28T00:53:38.185Z,29.03
2019-02-28T00:56:09.169Z,30.20
2019-02-28T00:58:39.989Z,27.70
2019-02-28T01:01:11.554Z,33.50
2019-02-28T01:03:43.510Z,34.17
2019-02-28T01:06:14.417Z,31.13
2019-02-28T01:08:45.296Z,35.57
2019-02-28T01:11:16.140Z,38.40
2019-02-28T01:13:47.121Z,36.13
2019-02-28T01:16:19.332Z,38.50
2019-02-28T01:18:50.545Z,35.17
2019-02-28T01:21:23.890Z,34.30
2019-02-28T01:23:53.876Z,36.33
2019-02-28T01:26:25.809Z,38.27
2019-02-28T01:29:01.527Z,32.60
2019-02-28T01:31:29.165Z,37.03
2019-02-28T01:34:00.153Z,35.20
2019-02-28T01:36:31.053Z,39.30
2019-02-28T01:39:01.885Z,39.77
2019-02-28T01:41:34.293Z,36.40
2019-02-28T01:44:05.253Z,36.60
2019-02-28T01:46:36.065Z,35.97
2019-02-28T01:49:07.077Z,40.67
2019-02-28T01:51:37.965Z,36.70
2019-02-28T01:54:08.864Z,41.23
2019-02-28T01:56:39.697Z,40.87
2019-02-28T01:59:10.689Z,41.10
2019-02-28T02:01:41.537Z,41.03
2019-02-28T02:04:13.140Z,45.70
2019-02-28T02:06:44.958Z,40.70
2019-02-28T02:09:15.703Z,46.37
2019-02-28T02:11:46.501Z,39.90
2019-02-28T02:14:17.500Z,40.23
2019-02-28T02:16:48.305Z,42.87
2019-02-28T02:19:19.093Z,45.50
2019-02-28T02:21:49.982Z,39.07
2019-02-28T02:24:20.881Z,45.83
2019-02-28T02:26:51.685Z,44.67
2019-02-28T02:29:22.605Z,42.23
2019-02-28T02:31:53.523Z,44.40
2019-02-28T02:34:28.007Z,44.17
2019-02-28T02:36:56.812Z,51.00
2019-02-28T02:39:27.622Z,46.20
2019-02-28T02:41:58.461Z,44.30
2019-02-28T02:44:31.805Z,41.10
2019-02-28T02:47:01.852Z,50.00
2019-02-28T02:49:32.680Z,46.27
2019-02-28T02:52:03.589Z,48.77
2019-02-28T02:54:34.427Z,46.50
2019-02-28T02:57:05.402Z,49.17
2019-02-28T02:59:39.102Z,47.13
2019-02-28T03:02:08.787Z,49.03
2019-02-28T03:04:39.554Z,47.43
2019-02-28T03:07:10.486Z,51.10
2019-02-28T03:09:43.430Z,49.27
2019-02-28T03:12:13.990Z,50.57
2019-02-28T03:14:48.834Z,58.83
2019-02-28T03:17:17.335Z,53.07
2019-02-28T03:19:48.229Z,62.43
2019-02-28T03:22:19.086Z,56.87
2019-02-28T03:24:51.089Z,62.17
2019-02-28T03:27:22.401Z,53.17
2019-02-28T03:29:53.213Z,54.60
2019-02-28T03:32:24.102Z,62.33
2019-02-28T03:34:58.805Z,58.87
2019-02-28T03:37:32.824Z,66.47
2019-02-28T03:40:04.318Z,63.20
2019-02-28T03:42:32.364Z,62.00
2019-02-28T03:45:03.345Z,55.73
2019-02-28T03:47:35.264Z,59.57
2019-02-28T03:50:06.291Z,53.17
2019-02-28T03:52:42.252Z,58.23
2019-02-28T03:55:09.994Z,57.37
2019-02-28T03:57:40.889Z,57.77
2019-02-28T04:00:14.573Z,57.87
2019-02-28T04:02:45.441Z,58.67
2019-02-28T04:05:16.273Z,60.47
2019-02-28T04:07:52.925Z,55.47
2019-02-28T04:10:21.995Z,55.63
2019-02-28T04:12:52.118Z,61.03
2019-02-28T04:15:23.138Z,55.57
2019-02-28T04:17:54.114Z,54.87
2019-02-28T04:20:25.055Z,55.63
2019-02-28T04:22:59.898Z,63.37
2019-02-28T04:25:28.603Z,56.03
2019-02-28T04:27:59.409Z,55.13
2019-02-28T04:30:33.682Z,64.20
2019-02-28T04:33:04.545Z,62.33
2019-02-28T04:35:35.373Z,52.70
2019-02-28T04:38:06.214Z,62.73
2019-02-28T04:40:37.053Z,59.13
2019-02-28T04:43:10.116Z,59.53
2019-02-28T04:45:40.469Z,54.83
2019-02-28T04:48:13.982Z,56.47
2019-02-28T04:50:43.881Z,55.03
2019-02-28T04:53:14.617Z,62.73
2019-02-28T04:55:45.512Z,56.97
2019-02-28T04:58:16.330Z,60.00
2019-02-28T05:00:47.146Z,64.43
2019-02-28T05:03:17.952Z,61.77
2019-02-28T05:05:48.938Z,60.20
2019-02-28T05:08:19.837Z,55.13
2019-02-28T05:10:55.620Z,64.97
2019-02-28T05:13:23.101Z,59.13
2019-02-28T05:15:53.982Z,58.17
2019-02-28T05:18:27.634Z,59.77
2019-02-28T05:20:57.242Z,65.47
2019-02-28T05:23:28.054Z,62.50
2019-02-28T05:25:58.950Z,65.57
2019-02-28T05:28:29.673Z,52.70
2019-02-28T05:31:00.493Z,55.17
2019-02-28T05:33:31.377Z,56.97
2019-02-28T05:36:04.333Z,55.13
2019-02-28T05:38:34.745Z,61.23
2019-02-28T05:41:05.584Z,59.13
2019-02-28T05:43:36.398Z,54.30
2019-02-28T05:46:07.226Z,51.23
2019-02-28T05:48:38.735Z,57.80
2019-02-28T05:51:10.234Z,55.63
2019-02-28T05:53:42.453Z,55.00
2019-02-28T05:56:13.546Z,56.40
2019-02-28T05:58:44.366Z,61.93
2019-02-28T06:01:15.189Z,54.27
2019-02-28T06:03:46.270Z,55.53
2019-02-28T06:06:17.295Z,66.53
2019-02-28T06:08:49.617Z,68.53
2019-02-28T06:11:20.558Z,58.23
2019-02-28T06:13:52.861Z,61.30
2019-02-28T06:16:23.842Z,59.23
2019-02-28T06:18:54.718Z,63.67
2019-02-28T06:21:25.628Z,59.53
2019-02-28T06:23:56.581Z,67.60
2019-02-28T06:26:27.510Z,56.40
2019-02-28T06:28:58.474Z,61.77
2019-02-28T06:31:29.302Z,55.53
2019-02-28T06:34:00.194Z,60.13
2019-02-28T06:36:31.053Z,59.33
2019-02-28T06:39:01.866Z,63.57
2019-02-28T06:41:34.147Z,60.03
2019-02-28T06:44:05.114Z,64.80
2019-02-28T06:46:35.998Z,63.03
2019-02-28T06:49:07.198Z,64.17
2019-02-28T06:51:39.202Z,69.53
2019-02-28T06:54:10.048Z,68.67
2019-02-28T06:56:41.890Z,62.67
2019-02-28T06:59:12.717Z,61.67
2019-02-28T07:01:43.623Z,72.87
2019-02-28T07:04:15.204Z,66.07
2019-02-28T07:06:46.242Z,64.23
2019-02-28T07:09:17.074Z,59.20
2019-02-28T07:11:47.954Z,59.90
2019-02-28T07:14:18.849Z,64.00
2019-02-28T07:16:49.669Z,56.17
2019-02-28T07:19:20.441Z,59.93
2019-02-28T07:21:51.344Z,59.23
2019-02-28T07:24:22.252Z,60.47
2019-02-28T07:26:53.190Z,62.93
2019-02-28T07:29:23.997Z,61.07
2019-02-28T07:31:59.955Z,69.23
2019-02-28T07:34:27.337Z,61.27
2019-02-28T07:36:58.313Z,61.20
2019-02-28T07:39:29.329Z,63.10
2019-02-28T07:42:02.251Z,62.97
2019-02-28T07:44:32.697Z,61.90
2019-02-28T07:47:03.643Z,62.20
2019-02-28T07:49:36.740Z,61.17
2019-02-28T07:52:07.922Z,64.37
2019-02-28T07:54:38.753Z,66.57
2019-02-28T07:57:09.582Z,69.43
2019-02-28T07:59:42.431Z,69.93
2019-02-28T08:02:13.081Z,63.30
2019-02-28T08:04:43.902Z,66.83
2019-02-28T08:07:15.683Z,67.03
2019-02-28T08:09:46.657Z,73.90
2019-02-28T08:12:17.507Z,62.43
2019-02-28T08:14:48.404Z,63.90
2019-02-28T08:17:19.209Z,61.97
2019-02-28T08:19:50.036Z,60.73
2019-02-28T08:22:24.244Z,61.87
2019-02-28T08:24:53.441Z,69.27
2019-02-28T08:27:25.414Z,65.07
2019-02-28T08:29:56.959Z,64.00
2019-02-28T08:32:27.781Z,62.17
2019-02-28T08:34:59.405Z,63.40
2019-02-28T08:37:30.725Z,56.30
2019-02-28T08:40:01.623Z,59.83
2019-02-28T08:42:32.553Z,59.67
2019-02-28T08:45:03.490Z,62.40
2019-02-28T08:47:34.801Z,66.80
2019-02-28T08:50:07.035Z,57.03
2019-02-28T08:52:41.149Z,58.83
2019-02-28T08:55:12.461Z,59.27
2019-02-28T08:57:43.438Z,58.57
2019-02-28T09:00:16.400Z,60.10
2019-02-28T09:02:52.225Z,65.57
2019-02-28T09:05:25.518Z,59.27
2019-02-28T09:07:52.859Z,62.57
2019-02-28T09:10:23.921Z,60.13
2019-02-28T09:12:54.821Z,63.53
2019-02-28T09:15:30.029Z,53.73
2019-02-28T09:17:59.573Z,64.77
2019-02-28T09:20:30.529Z,63.47
2019-02-28T09:23:02.170Z,63.50
2019-02-28T09:25:34.189Z,60.70
2019-02-28T09:28:16.614Z,63.33
2019-02-28T09:30:47.982Z,61.50
2019-02-28T09:33:22.806Z,61.00
2019-02-28T09:35:51.376Z,59.77
2019-02-28T09:38:22.249Z,56.23
2019-02-28T09:40:53.174Z,60.37
2019-02-28T09:43:24.825Z,57.70
2019-02-28T09:45:55.818Z,58.73
2019-02-28T09:48:26.789Z,58.27
2019-02-28T09:50:58.307Z,58.33
2019-02-28T09:53:30.029Z,61.63
2019-02-28T09:56:00.918Z,62.50
2019-02-28T09:58:32.721Z,59.53
2019-02-28T10:01:03.614Z,58.43
2019-02-28T10:03:34.706Z,57.70
2019-02-28T10:06:05.781Z,63.17
2019-02-28T10:08:37.913Z,61.23
2019-02-28T10:11:08.918Z,63.00
2019-02-28T10:13:39.758Z,59.50
2019-02-28T10:16:13.562Z,59.47
2019-02-28T10:18:43.174Z,60.60
2019-02-28T10:21:14.182Z,56.37
2019-02-28T10:23:45.077Z,59.97
2019-02-28T10:26:17.275Z,60.20
2019-02-28T10:28:48.509Z,64.27
2019-02-28T10:31:22.930Z,64.37
2019-02-28T10:33:52.550Z,64.27
2019-02-28T10:36:24.102Z,65.70
2019-02-28T10:38:54.953Z,68.00
2019-02-28T10:41:28.024Z,61.87
2019-02-28T10:43:59.390Z,59.73
2019-02-28T10:46:30.285Z,64.97
2019-02-28T10:49:01.101Z,58.33
2019-02-28T10:51:32.026Z,60.40
2019-02-28T10:54:02.918Z,61.60
2019-02-28T10:56:33.734Z,68.40
2019-02-28T10:59:04.722Z,62.87
2019-02-28T11:01:35.628Z,59.13
2019-02-28T11:04:07.426Z,68.60
2019-02-28T11:06:40.576Z,59.23
2019-02-28T11:09:21.713Z,60.63
2019-02-28T11:11:51.717Z,65.80
2019-02-28T11:14:22.782Z,59.47
2019-02-28T11:16:58.863Z,62.73
2019-02-28T11:19:26.286Z,60.57
2019-02-28T11:21:57.365Z,63.27
2019-02-28T11:24:28.211Z,59.37
2019-02-28T11:27:00.094Z,60.00
2019-02-28T11:29:31.002Z,60.03
2019-02-28T11:32:02.006Z,60.47
2019-02-28T11:34:32.842Z,59.50
2019-02-28T11:37:08.581Z,64.60
2019-02-28T11:39:36.527Z,62.17
2019-02-28T11:42:07.526Z,62.67
2019-02-28T11:44:38.426Z,66.73
2019-02-28T11:47:11.146Z,68.47
2019-02-28T11:49:41.786Z,68.60
2019-02-28T11:52:12.725Z,67.90
2019-02-28T11:54:45.206Z,68.80
2019-02-28T11:57:16.358Z,66.93
2019-02-28T11:59:47.170Z,67.50
2019-02-28T12:02:20.221Z,66.70
2019-02-28T12:04:51.482Z,68.97
2019-02-28T12:07:22.322Z,63.67
2019-02-28T12:09:54.721Z,67.30
2019-02-28T12:12:25.742Z,68.10
2019-02-28T12:14:56.650Z,68.70
2019-02-28T12:17:28.523Z,72.73
2019-02-28T12:20:00.250Z,76.57
2019-02-28T12:22:31.078Z,73.03
2019-02-28T12:25:04.593Z,70.47
2019-02-28T12:27:34.594Z,73.43
2019-02-28T12:30:07.447Z,72.67
2019-02-28T12:32:40.242Z,69.57
2019-02-28T12:35:11.146Z,81.40
2019-02-28T12:37:42.042Z,77.43
2019-02-28T12:40:15.170Z,85.03
2019-02-28T12:42:46.078Z,75.60
2019-02-28T12:45:21.208Z,71.37
2019-02-28T12:47:52.090Z,76.60
2019-02-28T12:50:23.026Z,69.07
2019-02-28T12:52:53.998Z,72.73
2019-02-28T12:55:25.111Z,69.63
2019-02-28T12:57:57.794Z,61.03
2019-02-28T13:00:34.259Z,63.57
2019-02-28T13:03:05.179Z,59.03
2019-02-28T13:05:36.281Z,60.37
2019-02-28T13:08:07.271Z,56.50
2019-02-28T13:10:38.298Z,59.50
2019-02-28T13:13:09.476Z,57.30
2019-02-28T13:15:40.304Z,51.23
2019-02-28T13:18:11.074Z,50.43
2019-02-28T13:20:42.170Z,45.50
2019-02-28T13:23:13.053Z,51.30
2019-02-28T13:25:43.958Z,54.53
2019-02-28T13:28:18.168Z,51.60
2019-02-28T13:30:50.222Z,47.43
2019-02-28T13:33:20.102Z,67.50
2019-02-28T13:35:50.933Z,59.93
2019-02-28T13:38:21.761Z,59.77
2019-02-28T13:40:52.665Z,55.97
2019-02-28T13:43:23.586Z,60.77
2019-02-28T13:45:55.919Z,61.97
2019-02-28T13:48:33.133Z,62.67
2019-02-28T13:51:02.547Z,65.10
2019-02-28T13:53:32.459Z,64.77
2019-02-28T13:56:05.006Z,62.63
2019-02-28T13:58:35.998Z,67.27
2019-02-28T14:01:07.730Z,67.93
2019-02-28T14:03:42.232Z,66.10
2019-02-28T14:06:11.655Z,74.67
2019-02-28T14:08:46.438Z,69.33
2019-02-28T14:11:17.314Z,73.60
2019-02-28T14:13:48.222Z,76.97
2019-02-28T14:16:19.042Z,74.03
2019-02-28T14:18:49.809Z,70.63
2019-02-28T14:21:20.562Z,69.37
2019-02-28T14:23:52.406Z,68.23
2019-02-28T14:26:24.259Z,69.00
2019-02-28T14:28:55.169Z,63.00
2019-02-28T14:31:26.046Z,65.67
2019-02-28T14:33:56.866Z,63.03
2019-02-28T14:36:27.731Z,66.20
2019-02-28T14:38:58.719Z,58.63
2019-02-28T14:41:31.831Z,59.97
2019-02-28T14:44:02.243Z,58.93
2019-02-28T14:46:34.713Z,60.83
2019-02-28T14:49:05.803Z,58.73
2019-02-28T14:51:36.647Z,54.50
2019-02-28T14:54:07.486Z,54.80
2019-02-28T14:56:39.549Z,55.90
2019-02-28T14:59:10.818Z,53.87
2019-02-28T15:01:41.755Z,49.67
2019-02-28T15:04:12.718Z,47.93
2019-02-28T15:06:43.535Z,53.57
2019-02-28T15:09:16.767Z,44.33
2019-02-28T15:11:48.201Z,47.33
2019-02-28T15:14:19.167Z,46.20
2019-02-28T15:16:49.923Z,41.67
2019-02-28T15:19:24.364Z,43.80
2019-02-28T15:21:54.234Z,38.03
2019-02-28T15:24:25.223Z,39.27
2019-02-28T15:26:56.051Z,38.70
2019-02-28T15:29:27.040Z,35.00
2019-02-28T15:31:57.844Z,37.60
2019-02-28T15:34:28.664Z,33.60
2019-02-28T15:37:00.259Z,33.70
2019-02-28T15:39:31.311Z,34.83
2019-02-28T15:42:02.150Z,30.97
2019-02-28T15:44:32.915Z,30.27
2019-02-28T15:47:03.896Z,31.73
2019-02-28T15:49:34.660Z,37.37
2019-02-28T15:52:06.321Z,32.63
2019-02-28T15:54:37.248Z,28.50
2019-02-28T15:57:08.239Z,29.70
2019-02-28T15:59:39.284Z,27.50
2019-02-28T16:02:10.147Z,24.67
2019-02-28T16:04:40.975Z,23.53
2019-02-28T16:07:11.888Z,24.57
2019-02-28T16:09:42.889Z,16.57
2019-02-28T16:12:16.002Z,17.83
2019-02-28T16:14:46.932Z,15.97
2019-02-28T16:17:17.756Z,12.33
2019-02-28T16:19:48.520Z,15.50
2019-02-28T16:22:19.416Z,12.50
2019-02-28T16:24:50.248Z,9.93
2019-02-28T16:27:21.070Z,14.87
2019-02-28T16:29:52.292Z,12.67
2019-02-28T16:32:24.470Z,14.07
2019-02-28T16:34:55.304Z,13.37
2019-02-28T16:37:26.130Z,14.57
2019-02-28T16:39:58.088Z,14.30
2019-02-28T16:42:28.928Z,15.67
2019-02-28T16:45:02.591Z,14.30
2019-02-28T16:47:32.856Z,16.53
2019-02-28T16:50:03.859Z,12.47
2019-02-28T16:52:37.332Z,16.60
2019-02-28T16:55:07.807Z,16.23
2019-02-28T16:57:38.884Z,11.93
2019-02-28T17:00:09.950Z,18.10
2019-02-28T17:02:40.830Z,13.27
2019-02-28T17:05:11.812Z,14.87
2019-02-28T17:07:43.695Z,13.60
2019-02-28T17:10:17.056Z,11.00
2019-02-28T17:13:06.951Z,12.57
2019-02-28T17:16:06.016Z,11.43
2019-02-28T17:18:37.255Z,9.60
2019-02-28T17:21:08.151Z,10.17
2019-02-28T17:23:39.057Z,13.10
2019-02-28T17:26:10.048Z,15.47
2019-02-28T17:28:46.511Z,10.87
2019-02-28T17:31:44.424Z,13.67
2019-02-28T17:34:23.652Z,12.83
2019-02-28T17:36:52.461Z,15.13
2019-02-28T17:39:23.504Z,12.73
2019-02-28T17:41:54.328Z,15.60
2019-02-28T17:44:40.432Z,13.60
2019-02-28T17:47:54.392Z,10.57
2019-02-28T17:50:42.845Z,11.17
2019-02-28T17:54:06.668Z,12.03
2019-02-28T17:57:10.678Z,10.50
2019-02-28T18:00:26.795Z,10.93
2019-02-28T18:03:35.801Z,8.67
2019-02-28T18:06:49.449Z,14.53
2019-02-28T18:09:44.961Z,10.97
2019-02-28T18:13:05.888Z,11.03
2019-02-28T18:16:26.328Z,11.80
2019-02-28T18:19:09.616Z,11.07
2019-02-28T18:21:53.880Z,15.13
2019-02-28T18:25:04.493Z,8.93
2019-02-28T18:28:22.539Z,10.00
2019-02-28T18:31:10.140Z,12.87
2019-02-28T18:33:46.944Z,10.37
2019-02-28T18:36:19.752Z,10.73
2019-02-28T18:38:50.644Z,8.23
2019-02-28T18:41:21.459Z,7.97
2019-02-28T18:43:52.388Z,10.03
2019-02-28T18:46:23.217Z,9.90
2019-02-28T18:48:54.378Z,9.37
2019-02-28T18:51:27.376Z,12.10
2019-02-28T18:53:58.196Z,11.60
2019-02-28T18:56:29.117Z,13.20
2019-02-28T18:59:00.039Z,11.80
2019-02-28T19:01:30.880Z,10.10
2019-02-28T19:04:01.781Z,15.60
2019-02-28T19:06:32.625Z,8.70
2019-02-28T19:27:31.417Z,6.97
2019-02-28T19:30:03.204Z,7.23
2019-02-28T20:26:45.294Z,9.83
2019-02-28T20:29:16.223Z,8.57
2019-02-28T20:31:46.959Z,9.00
2019-02-28T20:37:06.696Z,11.57
2019-02-28T20:39:37.606Z,9.20
2019-02-28T20:42:08.499Z,11.50
2019-02-28T20:44:39.540Z,8.07
2019-02-28T20:47:10.479Z,9.13
2019-02-28T20:49:41.219Z,8.60
2019-02-28T20:52:12.046Z,10.17
2019-02-28T20:54:42.797Z,8.70
2019-02-28T20:57:13.797Z,9.90
2019-02-28T20:59:44.701Z,9.73
2019-02-28T21:02:15.586Z,8.30
2019-02-28T21:04:46.413Z,9.10
2019-02-28T21:07:17.289Z,8.17
2019-02-28T21:09:48.101Z,8.90
2019-02-28T21:12:18.922Z,10.87
2019-02-28T21:14:50.818Z,9.23
2019-02-28T21:17:29.175Z,10.60
2019-02-28T21:19:54.145Z,10.30
2019-02-28T21:22:24.954Z,12.17
2019-02-28T21:24:55.791Z,9.20
2019-02-28T21:27:27.513Z,11.47
2019-02-28T21:29:59.413Z,13.27
2019-02-28T21:32:49.570Z,11.73
2019-02-28T21:35:21.178Z,12.00
2019-02-28T21:37:52.304Z,14.80
2019-02-28T21:40:34.991Z,13.40
2019-02-28T21:43:06.211Z,12.50
2019-02-28T21:45:37.155Z,12.57
2019-02-28T21:48:08.077Z,13.60
2019-02-28T21:50:40.003Z,14.33
2019-02-28T21:53:10.878Z,11.90
2019-02-28T21:55:41.767Z,16.97
2019-02-28T21:58:12.596Z,15.13
2019-02-28T22:00:43.426Z,15.13
2019-02-28T22:03:14.192Z,16.63
2019-02-28T22:05:45.008Z,12.37
2019-02-28T22:08:15.844Z,17.30
2019-02-28T22:10:46.668Z,17.70
2019-02-28T22:13:17.429Z,17.40
2019-02-28T22:15:48.465Z,14.70
2019-02-28T22:18:20.451Z,16.73
2019-02-28T22:20:51.288Z,14.77
2019-02-28T22:23:22.031Z,15.97
2019-02-28T22:25:52.983Z,17.43
2019-02-28T22:28:23.847Z,18.10
2019-02-28T22:31:25.204Z,16.27
2019-02-28T22:34:02.944Z,16.93
2019-02-28T22:36:39.655Z,15.40
2019-02-28T22:39:10.633Z,16.50
2019-02-28T22:41:41.547Z,15.90
2019-02-28T22:44:12.376Z,17.43
2019-02-28T22:46:43.227Z,17.93
2019-02-28T22:49:14.039Z,15.80
2019-02-28T22:51:44.952Z,17.53
2019-02-28T22:54:15.788Z,17.27
2019-02-28T22:56:46.553Z,16.17
2019-02-28T22:59:17.381Z,15.53
2019-02-28T23:01:48.437Z,15.27
2019-02-28T23:04:19.528Z,16.03
2019-02-28T23:06:50.356Z,16.83
2019-02-28T23:09:21.207Z,18.93
2019-02-28T23:11:52.032Z,15.57
2019-02-28T23:14:22.932Z,14.87
2019-02-28T23:16:53.924Z,17.37
2019-02-28T23:19:24.755Z,17.30
2019-02-28T23:21:55.500Z,16.57
2019-02-28T23:24:26.340Z,16.73
2019-02-28T23:27:16.027Z,14.67
2019-02-28T23:30:10.532Z,15.67
2019-02-28T23:32:57.176Z,15.90
2019-02-28T23:35:31.380Z,14.90
2019-02-28T23:38:02.273Z,16.27
2019-02-28T23:40:33.208Z,19.93
2019-02-28T23:43:04.271Z,16.10
2019-02-28T23:45:35.260Z,17.07
2019-02-28T23:48:06.228Z,15.83
2019-02-28T23:50:37.191Z,18.30
2019-02-28T23:53:08.032Z,16.97
2019-02-28T23:55:38.784Z,17.43
2019-02-28T23:58:09.600Z,14.80
